Time;durP1;ratioP1;P1;durP2;ratioP2;P2;SDS_P1;SDS_P2;PMS_P1;PMS_P2;Temp;Humidity;BMP_temperature;BMP_pressure;BME280_temperature;BME280_humidity;BME280_pressure;Samples;Min_cycle;Max_cycle;Signal;HPM_P1;HPM_P2
2023/09/30 00:00:25;;;;;;;5.80;3.15;;;18.60;99.90;;;;;;4933012;29;20446;-85
2023/09/30 00:02:51;;;;;;;7.40;3.50;;;18.40;99.90;;;;;;4932292;29;20624;-85
2023/09/30 00:05:19;;;;;;;6.77;3.30;;;18.50;99.90;;;;;;4929599;29;20197;-85
2023/09/30 00:07:47;;;;;;;6.32;4.10;;;18.20;99.90;;;;;;4932957;29;20194;-84
2023/09/30 00:10:14;;;;;;;6.28;4.05;;;18.70;99.90;;;;;;4932099;29;20261;-84
2023/09/30 00:12:40;;;;;;;5.90;3.45;;;18.30;99.90;;;;;;4932122;29;20246;-84
2023/09/30 00:15:06;;;;;;;4.97;3.60;;;18.70;99.90;;;;;;4929475;29;20210;-84
2023/09/30 00:17:31;;;;;;;5.53;3.40;;;18.40;99.90;;;;;;4934255;29;20305;-84
2023/09/30 00:19:57;;;;;;;4.40;3.50;;;18.60;99.90;;;;;;4932719;29;20450;-84
2023/09/30 00:22:22;;;;;;;5.00;3.00;;;18.70;99.90;;;;;;4930014;29;20202;-85
2023/09/30 00:24:48;;;;;;;4.03;3.20;;;18.30;99.90;;;;;;4932331;29;20884;-85
2023/09/30 00:27:13;;;;;;;5.90;3.70;;;18.30;99.90;;;;;;4932374;29;20321;-85
2023/09/30 00:29:39;;;;;;;5.50;3.73;;;18.60;99.90;;;;;;4932903;29;20201;-85
2023/09/30 00:32:05;;;;;;;4.97;3.73;;;18.40;99.90;;;;;;4926875;29;20218;-85
2023/09/30 00:34:34;;;;;;;6.07;3.93;;;18.50;99.90;;;;;;4933071;29;20210;-85
2023/09/30 00:37:01;;;;;;;4.90;3.83;;;18.10;99.90;;;;;;4931040;29;20904;-85
2023/09/30 00:39:29;;;;;;;6.50;3.70;;;18.40;99.90;;;;;;4931700;29;20284;-85
2023/09/30 00:41:56;;;;;;;6.15;3.72;;;18.30;99.90;;;;;;4930567;29;20182;-85
2023/09/30 00:44:21;;;;;;;7.93;4.35;;;18.30;99.90;;;;;;4933651;29;20576;-85
2023/09/30 00:46:47;;;;;;;5.17;3.40;;;17.90;99.90;;;;;;4932197;29;20197;-85
2023/09/30 00:49:14;;;;;;;4.50;3.37;;;17.90;99.90;;;;;;4929138;29;20277;-85
2023/09/30 00:51:39;;;;;;;6.72;3.42;;;18.30;99.90;;;;;;4931039;29;20185;-86
2023/09/30 00:54:06;;;;;;;5.37;3.50;;;18.10;99.90;;;;;;4932669;29;20188;-84
2023/09/30 00:56:32;;;;;;;5.22;3.10;;;17.90;99.90;;;;;;4930598;29;20216;-83
2023/09/30 00:58:59;;;;;;;5.50;3.67;;;18.00;99.90;;;;;;4929884;29;20209;-84
2023/09/30 01:01:25;;;;;;;4.45;3.00;;;17.80;99.90;;;;;;4932509;29;20670;-83
2023/09/30 01:03:51;;;;;;;3.37;2.80;;;18.30;99.90;;;;;;4931823;29;20241;-84
2023/09/30 01:06:16;;;;;;;4.40;2.78;;;18.30;99.90;;;;;;4929623;29;20688;-84
2023/09/30 01:08:42;;;;;;;4.17;3.17;;;18.50;99.90;;;;;;4932887;29;20198;-84
2023/09/30 01:11:09;;;;;;;3.40;2.53;;;18.20;99.90;;;;;;4930582;29;20681;-84
2023/09/30 01:13:38;;;;;;;4.78;2.55;;;18.60;99.90;;;;;;4933354;29;20469;-84
2023/09/30 01:16:09;;;;;;;3.40;3.10;;;18.50;99.90;;;;;;4929945;29;20196;-84
2023/09/30 01:18:36;;;;;;;3.47;2.72;;;18.60;99.90;;;;;;4930544;29;20213;-84
2023/09/30 01:21:04;;;;;;;3.15;2.40;;;18.50;99.90;;;;;;4929430;29;20677;-84
2023/09/30 01:23:31;;;;;;;4.10;2.60;;;18.80;99.90;;;;;;4930276;29;20216;-84
2023/09/30 01:25:56;;;;;;;3.40;3.03;;;18.20;99.90;;;;;;4931137;29;20245;-85
2023/09/30 01:28:23;;;;;;;3.50;2.60;;;18.50;99.90;;;;;;4931932;29;20265;-85
2023/09/30 01:30:48;;;;;;;4.60;3.17;;;18.50;99.90;;;;;;4931046;29;20192;-85
2023/09/30 01:33:16;;;;;;;3.57;2.60;;;18.70;99.90;;;;;;4929303;29;20213;-85
2023/09/30 01:35:42;;;;;;;3.50;3.00;;;18.60;99.90;;;;;;4931710;29;20185;-85
2023/09/30 01:38:07;;;;;;;4.40;3.00;;;18.50;99.90;;;;;;4932725;29;20224;-84
2023/09/30 01:40:33;;;;;;;3.90;2.90;;;18.70;99.90;;;;;;4945112;29;20200;-84
2023/09/30 01:42:58;;;;;;;3.77;3.10;;;18.70;99.90;;;;;;4939941;29;20297;-85
2023/09/30 01:45:24;;;;;;;6.00;2.90;;;18.60;99.90;;;;;;4928939;29;20200;-85
2023/09/30 01:47:49;;;;;;;3.40;2.63;;;18.40;99.90;;;;;;4929536;29;20631;-85
2023/09/30 01:50:15;;;;;;;3.00;2.70;;;18.50;99.90;;;;;;4930354;29;20198;-85
2023/09/30 01:52:40;;;;;;;3.20;2.90;;;18.50;99.90;;;;;;4931643;29;20213;-84
2023/09/30 01:55:06;;;;;;;4.00;3.07;;;18.50;99.90;;;;;;4929140;29;20205;-85
2023/09/30 01:57:32;;;;;;;4.07;2.63;;;18.30;99.90;;;;;;4929535;29;20233;-85
2023/09/30 01:59:57;;;;;;;4.60;2.83;;;18.60;99.90;;;;;;4929655;29;21049;-85
2023/09/30 02:02:23;;;;;;;3.97;2.90;;;18.20;99.90;;;;;;4931406;29;21282;-85
2023/09/30 02:04:48;;;;;;;2.97;2.37;;;18.50;99.90;;;;;;4932363;29;20209;-84
2023/09/30 02:07:14;;;;;;;2.90;2.60;;;18.60;99.90;;;;;;4934268;29;20221;-85
2023/09/30 02:09:39;;;;;;;3.17;2.80;;;18.40;99.90;;;;;;4931188;29;20558;-85
2023/09/30 02:12:07;;;;;;;6.83;3.03;;;18.10;99.90;;;;;;4932827;29;20217;-84
2023/09/30 02:14:33;;;;;;;4.45;2.72;;;18.10;99.90;;;;;;4933050;29;20291;-85
2023/09/30 02:16:58;;;;;;;4.23;3.20;;;18.50;99.90;;;;;;4933966;29;20288;-85
2023/09/30 02:19:24;;;;;;;7.60;3.40;;;18.20;99.90;;;;;;4933915;29;20213;-85
2023/09/30 02:21:50;;;;;;;5.20;2.80;;;18.10;99.90;;;;;;4935069;29;20181;-85
2023/09/30 02:24:15;;;;;;;7.00;3.47;;;18.10;99.90;;;;;;4933337;29;20445;-85
2023/09/30 02:26:41;;;;;;;6.10;3.00;;;17.70;99.90;;;;;;4933894;29;20188;-85
2023/09/30 02:29:09;;;;;;;5.43;3.40;;;17.80;99.90;;;;;;4934838;29;20200;-84
2023/09/30 02:31:35;;;;;;;5.85;3.40;;;17.80;99.90;;;;;;4933436;29;20197;-84
2023/09/30 02:34:03;;;;;;;3.40;3.03;;;17.30;99.90;;;;;;4932584;29;20228;-85
2023/09/30 02:36:29;;;;;;;3.97;3.20;;;17.70;99.90;;;;;;4932249;29;20561;-85
2023/09/30 02:38:54;;;;;;;3.37;2.90;;;17.10;99.90;;;;;;4934702;29;20219;-85
2023/09/30 02:41:20;;;;;;;4.90;4.07;;;17.60;99.90;;;;;;4933156;29;20304;-85
2023/09/30 02:43:46;;;;;;;4.73;2.97;;;17.30;99.90;;;;;;4940172;29;20215;-85
2023/09/30 02:46:12;;;;;;;4.35;3.28;;;17.40;99.90;;;;;;4935423;29;20560;-85
2023/09/30 02:48:38;;;;;;;6.17;3.83;;;17.50;99.90;;;;;;4932671;29;20199;-85
2023/09/30 02:51:04;;;;;;;4.43;3.03;;;17.30;99.90;;;;;;4936207;29;20449;-85
2023/09/30 02:53:29;;;;;;;4.00;3.60;;;16.90;99.90;;;;;;4938593;29;20216;-85
2023/09/30 02:55:56;;;;;;;4.00;3.60;;;17.20;99.90;;;;;;4934023;29;20280;-84
2023/09/30 02:58:23;;;;;;;6.32;4.05;;;17.20;99.90;;;;;;4934535;29;20221;-85
2023/09/30 03:00:49;;;;;;;4.55;3.80;;;17.40;99.90;;;;;;4933606;29;20193;-84
2023/09/30 03:03:15;;;;;;;4.70;3.50;;;17.30;99.90;;;;;;4935807;29;20733;-86
2023/09/30 03:05:41;;;;;;;3.75;3.45;;;17.20;99.90;;;;;;4932388;29;20198;-85
2023/09/30 03:08:06;;;;;;;5.03;3.27;;;17.00;99.90;;;;;;4934614;29;20185;-84
2023/09/30 03:10:32;;;;;;;3.93;3.27;;;17.30;99.90;;;;;;4941992;28;20189;-83
2023/09/30 03:13:01;;;;;;;3.43;2.97;;;17.70;99.90;;;;;;4934107;29;20279;-84
2023/09/30 03:15:28;;;;;;;3.08;2.60;;;17.50;99.90;;;;;;4933672;29;20315;-84
2023/09/30 03:17:55;;;;;;;3.47;2.50;;;17.60;99.90;;;;;;4932805;29;20213;-86
2023/09/30 03:20:21;;;;;;;4.65;2.72;;;17.60;99.90;;;;;;4931264;29;20190;-86
2023/09/30 03:22:47;;;;;;;6.03;2.67;;;17.50;99.90;;;;;;4927546;29;20566;-85
2023/09/30 03:25:15;;;;;;;3.67;2.67;;;17.30;99.90;;;;;;4930820;29;21046;-85
2023/09/30 03:27:41;;;;;;;3.92;3.10;;;16.90;99.90;;;;;;4932050;29;20591;-85
2023/09/30 03:30:08;;;;;;;3.50;3.00;;;16.90;99.90;;;;;;4931595;29;20669;-85
2023/09/30 03:32:36;;;;;;;4.35;3.42;;;17.10;99.90;;;;;;4933100;29;20221;-85
2023/09/30 03:35:02;;;;;;;5.13;3.45;;;17.40;99.90;;;;;;4933578;29;20202;-85
2023/09/30 03:37:28;;;;;;;3.80;3.30;;;17.00;99.90;;;;;;4932011;29;20402;-85
2023/09/30 03:39:57;;;;;;;5.57;3.30;;;17.20;99.90;;;;;;4930993;29;20201;-85
2023/09/30 03:42:22;;;;;;;4.55;3.25;;;16.70;99.90;;;;;;4934541;29;20468;-85
2023/09/30 03:44:51;;;;;;;11.40;4.83;;;16.90;99.90;;;;;;4940197;28;20245;-85
2023/09/30 03:47:17;;;;;;;9.32;3.90;;;16.90;99.90;;;;;;4930275;29;20193;-89
2023/09/30 03:49:42;;;;;;;5.47;3.70;;;17.20;99.90;;;;;;4927258;29;20662;-89
2023/09/30 03:52:11;;;;;;;4.80;4.13;;;17.10;99.90;;;;;;4926408;29;20224;-89
2023/09/30 03:54:37;;;;;;;4.63;3.58;;;17.20;99.90;;;;;;4933769;29;20197;-89
2023/09/30 03:57:03;;;;;;;5.13;4.63;;;17.30;99.90;;;;;;4930179;29;20253;-88
2023/09/30 03:59:30;;;;;;;4.15;3.40;;;16.90;99.90;;;;;;4930776;29;20793;-88
2023/09/30 04:22:32;;;;;;;3.15;2.85;;;17.60;99.90;;;;;;4958828;28;20240;-85
2023/09/30 04:24:58;;;;;;;4.20;3.50;;;17.20;99.90;;;;;;4949889;29;20666;-84
2023/09/30 04:27:24;;;;;;;4.20;3.20;;;17.00;99.90;;;;;;4952788;29;20189;-83
2023/09/30 04:29:50;;;;;;;4.13;3.57;;;17.00;99.90;;;;;;4953557;28;20563;-85
2023/09/30 04:32:15;;;;;;;6.40;3.97;;;17.30;99.90;;;;;;4951723;28;20244;-85
2023/09/30 04:34:41;;;;;;;4.70;3.60;;;17.40;99.90;;;;;;4950865;29;20231;-85
2023/09/30 04:37:09;;;;;;;5.07;3.53;;;17.10;99.90;;;;;;4951137;29;20180;-88
2023/09/30 04:39:35;;;;;;;4.72;3.63;;;17.20;99.90;;;;;;4950527;29;20228;-86
2023/09/30 04:42:01;;;;;;;5.30;3.80;;;17.30;99.90;;;;;;4949749;28;20223;-87
2023/09/30 04:44:30;;;;;;;7.30;4.80;;;17.50;99.90;;;;;;4948588;28;20673;-88
2023/09/30 04:46:56;;;;;;;5.05;3.63;;;17.70;99.90;;;;;;4950298;28;20887;-82
2023/09/30 04:49:23;;;;;;;5.63;4.18;;;17.50;99.90;;;;;;4949775;28;20251;-85
2023/09/30 04:51:49;;;;;;;4.70;3.47;;;17.40;99.90;;;;;;4952760;28;20188;-83
2023/09/30 04:54:23;;;;;;;5.00;3.20;;;17.40;99.90;;;;;;5119487;27;20540;-85
2023/09/30 04:56:51;;;;;;;4.03;3.57;;;16.90;99.90;;;;;;5082542;28;20184;-84
2023/09/30 04:59:16;;;;;;;4.63;3.63;;;17.30;99.90;;;;;;5066942;28;20192;-84
2023/09/30 05:01:42;;;;;;;3.63;3.33;;;17.50;99.90;;;;;;5069038;28;20185;-84
2023/09/30 05:04:07;;;;;;;4.00;3.53;;;17.40;99.90;;;;;;5065797;28;20188;-84
2023/09/30 05:06:33;;;;;;;5.87;4.03;;;17.00;99.90;;;;;;5097176;28;20220;-82
2023/09/30 05:08:59;;;;;;;6.13;4.27;;;16.50;99.90;;;;;;5070846;28;20602;-83
2023/09/30 05:11:25;;;;;;;7.47;4.15;;;17.20;99.90;;;;;;5065686;28;20291;-83
2023/09/30 05:13:50;;;;;;;4.70;3.33;;;17.20;99.90;;;;;;5067513;28;20232;-84
2023/09/30 05:16:17;;;;;;;6.33;3.60;;;16.90;99.90;;;;;;5064347;28;20206;-83
2023/09/30 05:18:43;;;;;;;3.22;2.90;;;17.40;99.90;;;;;;5100552;28;20642;-84
2023/09/30 05:21:08;;;;;;;5.70;3.60;;;17.50;99.90;;;;;;5068198;28;20192;-84
2023/09/30 05:23:34;;;;;;;4.73;3.90;;;17.40;99.90;;;;;;5068975;28;20742;-84
2023/09/30 05:26:00;;;;;;;7.63;4.03;;;17.60;99.90;;;;;;5067699;28;20185;-83
2023/09/30 05:28:27;;;;;;;5.60;3.80;;;17.60;99.90;;;;;;5068021;28;20216;-82
2023/09/30 05:30:53;;;;;;;6.13;3.95;;;17.20;99.90;;;;;;5067194;28;20184;-83
2023/09/30 05:33:18;;;;;;;5.10;3.38;;;17.10;99.90;;;;;;5065876;28;20223;-82
2023/09/30 05:35:44;;;;;;;4.07;3.37;;;17.40;99.90;;;;;;5070038;28;20192;-84
2023/09/30 05:38:13;;;;;;;5.23;3.30;;;17.00;99.90;;;;;;5069071;28;20189;-82
2023/09/30 05:40:38;;;;;;;4.00;2.88;;;17.10;99.90;;;;;;5073318;28;20204;-84
2023/09/30 05:43:05;;;;;;;4.97;3.57;;;17.70;99.90;;;;;;5065876;28;20701;-83
2023/09/30 05:45:34;;;;;;;4.55;3.45;;;17.80;99.90;;;;;;5068538;28;20189;-83
2023/09/30 05:48:04;;;;;;;5.28;3.50;;;17.40;99.90;;;;;;5067788;28;20186;-83
2023/09/30 05:50:31;;;;;;;5.47;3.67;;;17.40;99.90;;;;;;5063264;28;20177;-83
2023/09/30 05:52:57;;;;;;;5.97;3.45;;;17.50;99.90;;;;;;5069983;28;20213;-82
2023/09/30 05:55:25;;;;;;;6.53;4.13;;;17.20;99.90;;;;;;5066555;28;20716;-84
2023/09/30 05:57:52;;;;;;;6.72;3.97;;;17.40;99.90;;;;;;5099120;28;20467;-84
2023/09/30 06:00:22;;;;;;;4.00;3.60;;;17.80;99.90;;;;;;5064517;28;20180;-83
2023/09/30 06:02:48;;;;;;;5.55;4.25;;;17.30;99.90;;;;;;5067288;28;20208;-80
2023/09/30 06:05:18;;;;;;;5.05;3.13;;;17.70;99.90;;;;;;5054143;28;20292;-82
2023/09/30 06:07:45;;;;;;;6.97;4.38;;;17.90;99.90;;;;;;5052464;28;20220;-82
2023/09/30 06:10:11;;;;;;;4.22;3.58;;;17.70;99.90;;;;;;5054198;28;20193;-81
2023/09/30 06:12:36;;;;;;;5.00;3.33;;;17.30;99.90;;;;;;5057526;28;20210;-81
2023/09/30 06:15:06;;;;;;;4.07;3.50;;;17.10;99.90;;;;;;5061748;28;20591;-82
2023/09/30 06:17:33;;;;;;;5.63;3.20;;;17.30;99.90;;;;;;5053854;28;20182;-82
2023/09/30 06:20:07;;;;;;;8.13;3.55;;;17.10;99.90;;;;;;5052090;28;20178;-82
2023/09/30 06:22:32;;;;;;;3.80;3.25;;;17.40;99.90;;;;;;5054412;28;20212;-84
2023/09/30 06:24:58;;;;;;;5.00;3.53;;;17.20;99.90;;;;;;5050650;28;20185;-84
2023/09/30 06:27:23;;;;;;;4.40;3.70;;;17.10;99.90;;;;;;5053130;28;20239;-84
2023/09/30 06:29:49;;;;;;;5.30;3.63;;;17.50;99.90;;;;;;5051400;28;20224;-84
2023/09/30 06:32:15;;;;;;;6.13;4.13;;;17.70;99.90;;;;;;5055405;28;20205;-84
2023/09/30 06:34:41;;;;;;;6.70;4.63;;;17.60;99.90;;;;;;5052665;28;20177;-88
2023/09/30 06:37:06;;;;;;;4.70;4.00;;;17.60;99.90;;;;;;5056822;28;20515;-82
2023/09/30 06:39:32;;;;;;;7.43;4.07;;;18.10;99.90;;;;;;5057547;28;20577;-85
2023/09/30 06:41:57;;;;;;;5.30;4.63;;;18.10;99.90;;;;;;5072258;28;20228;-87
2023/09/30 06:44:25;;;;;;;4.50;4.10;;;18.20;99.90;;;;;;5058728;28;20281;-84
2023/09/30 06:46:50;;;;;;;8.10;5.00;;;18.00;99.90;;;;;;5057197;28;20337;-83
2023/09/30 06:49:16;;;;;;;6.13;3.97;;;18.00;99.90;;;;;;5062793;28;20658;-85
2023/09/30 06:51:42;;;;;;;5.23;4.30;;;18.20;99.90;;;;;;5058804;28;20181;-85
2023/09/30 06:54:07;;;;;;;9.47;5.10;;;18.30;99.90;;;;;;5060411;28;20216;-84
2023/09/30 06:56:33;;;;;;;6.83;5.20;;;18.30;99.90;;;;;;5055300;28;20444;-85
2023/09/30 06:58:59;;;;;;;5.93;4.83;;;18.30;99.90;;;;;;5057350;28;20185;-84
2023/09/30 07:01:25;;;;;;;45.47;28.25;;;18.00;99.90;;;;;;5061228;28;20197;-85
2023/09/30 07:03:51;;;;;;;8.53;5.63;;;18.30;99.90;;;;;;5062822;28;20204;-84
2023/09/30 07:06:26;;;;;;;10.13;5.30;;;18.30;99.90;;;;;;5050773;28;20182;-84
2023/09/30 07:08:52;;;;;;;6.60;4.60;;;18.30;99.90;;;;;;5080953;28;20230;-84
2023/09/30 07:11:28;;;;;;;8.03;5.30;;;18.50;99.90;;;;;;5071590;28;20253;-84
2023/09/30 07:13:53;;;;;;;7.90;4.28;;;18.70;99.90;;;;;;5063063;28;20487;-84
2023/09/30 07:16:19;;;;;;;7.07;4.67;;;18.80;99.90;;;;;;5066065;28;20189;-82
2023/09/30 07:18:44;;;;;;;5.27;4.07;;;19.10;99.90;;;;;;5071833;28;20248;-84
2023/09/30 07:21:10;;;;;;;6.23;4.80;;;19.30;99.90;;;;;;5068689;28;20293;-84
2023/09/30 07:23:35;;;;;;;5.17;4.37;;;19.20;99.90;;;;;;5071050;28;20273;-83
2023/09/30 07:26:01;;;;;;;5.07;4.47;;;19.10;99.90;;;;;;5071103;28;20235;-83
2023/09/30 07:28:26;;;;;;;6.50;4.57;;;19.00;99.90;;;;;;5073859;28;20261;-83
2023/09/30 07:30:52;;;;;;;8.57;4.80;;;18.80;99.90;;;;;;5068410;28;20607;-84
2023/09/30 07:33:17;;;;;;;6.50;4.23;;;18.80;99.90;;;;;;5068514;28;20206;-83
2023/09/30 07:35:43;;;;;;;5.43;4.30;;;18.90;99.90;;;;;;5071274;28;20190;-83
2023/09/30 07:38:09;;;;;;;4.80;3.53;;;19.10;99.90;;;;;;5062532;28;20198;-83
2023/09/30 07:40:34;;;;;;;7.50;4.53;;;19.30;99.90;;;;;;5060814;28;20188;-84
2023/09/30 07:43:00;;;;;;;5.40;4.37;;;19.40;99.90;;;;;;5052552;28;20269;-84
2023/09/30 07:45:25;;;;;;;6.20;4.30;;;19.10;99.90;;;;;;5055108;28;20196;-84
2023/09/30 07:47:51;;;;;;;8.63;4.90;;;19.20;99.90;;;;;;5059137;28;20182;-84
2023/09/30 07:50:17;;;;;;;5.30;4.30;;;19.80;99.90;;;;;;5057223;28;20196;-83
2023/09/30 07:52:43;;;;;;;6.82;4.30;;;20.00;99.90;;;;;;5055208;28;20213;-84
2023/09/30 07:58:32;;;;;;;4.80;4.22;;;20.10;99.90;;;;;;5051616;28;20752;-80
2023/09/30 08:00:57;;;;;;;5.72;4.32;;;20.30;99.90;;;;;;5072193;28;20178;-84
2023/09/30 08:03:23;;;;;;;5.60;3.97;;;20.30;99.90;;;;;;5051976;28;20198;-81
2023/09/30 08:05:48;;;;;;;9.33;5.13;;;20.30;99.90;;;;;;5054051;28;20231;-81
2023/09/30 08:08:14;;;;;;;6.73;5.27;;;19.60;99.90;;;;;;5053191;28;20354;-80
2023/09/30 08:10:40;;;;;;;6.60;5.57;;;19.50;99.90;;;;;;5054157;28;20653;-82
2023/09/30 08:13:05;;;;;;;5.20;4.70;;;19.70;99.90;;;;;;5053697;28;20528;-82
2023/09/30 08:15:31;;;;;;;6.23;5.10;;;19.80;99.90;;;;;;5051801;28;20268;-81
2023/09/30 08:17:56;;;;;;;8.07;5.60;;;20.30;99.90;;;;;;5052083;28;20188;-82
2023/09/30 08:20:22;;;;;;;4.80;4.30;;;20.20;99.90;;;;;;5049295;28;20220;-82
2023/09/30 08:22:47;;;;;;;4.60;3.90;;;20.50;99.90;;;;;;5054074;28;20306;-82
2023/09/30 08:25:13;;;;;;;7.60;6.07;;;20.30;99.90;;;;;;5049693;28;20814;-81
2023/09/30 08:27:39;;;;;;;4.60;4.20;;;20.60;99.90;;;;;;5050236;28;21861;-82
2023/09/30 08:30:05;;;;;;;4.73;4.30;;;21.10;99.90;;;;;;5050551;28;20472;-84
2023/09/30 08:32:37;;;;;;;5.55;4.40;;;20.60;99.90;;;;;;5070483;28;20227;-80
2023/09/30 08:35:03;;;;;;;4.78;4.35;;;20.60;99.90;;;;;;5051169;28;20177;-80
2023/09/30 08:37:29;;;;;;;11.50;7.55;;;20.40;99.90;;;;;;5053780;28;20627;-85
2023/09/30 08:39:55;;;;;;;5.22;4.28;;;20.40;99.90;;;;;;5053961;28;20185;-81
2023/09/30 08:42:24;;;;;;;5.00;4.50;;;20.90;99.90;;;;;;5052270;28;20197;-79
2023/09/30 08:44:53;;;;;;;13.05;8.63;;;20.70;99.90;;;;;;5054038;28;20196;-80
2023/09/30 08:47:20;;;;;;;7.10;5.45;;;20.20;99.90;;;;;;5052827;28;20184;-81
2023/09/30 08:49:48;;;;;;;7.65;4.50;;;20.10;99.90;;;;;;5056252;28;20315;-83
2023/09/30 08:52:14;;;;;;;6.85;5.00;;;20.50;99.90;;;;;;5055139;28;20231;-81
2023/09/30 08:54:40;;;;;;;8.02;5.10;;;20.70;99.90;;;;;;5052706;28;20698;-79
2023/09/30 08:57:09;;;;;;;5.23;4.60;;;20.70;99.90;;;;;;5050716;28;20185;-79
2023/09/30 08:59:38;;;;;;;6.35;4.45;;;20.90;99.90;;;;;;5053294;28;20193;-79
2023/09/30 09:02:09;;;;;;;7.30;4.97;;;21.20;99.90;;;;;;5049616;28;20284;-79
2023/09/30 09:04:36;;;;;;;5.97;5.38;;;21.10;99.90;;;;;;5050371;28;20267;-81
2023/09/30 09:07:01;;;;;;;5.78;4.88;;;21.10;99.90;;;;;;5052349;28;20181;-81
2023/09/30 09:09:27;;;;;;;4.93;4.40;;;21.20;99.90;;;;;;5054114;28;20244;-81
2023/09/30 09:11:52;;;;;;;8.93;5.93;;;21.10;99.90;;;;;;5056430;28;20252;-81
2023/09/30 09:14:18;;;;;;;5.50;4.97;;;20.90;99.90;;;;;;5053295;28;20213;-81
2023/09/30 09:16:57;;;;;;;11.70;4.43;;;21.30;99.90;;;;;;5055201;28;20185;-81
2023/09/30 09:19:22;;;;;;;7.88;5.00;;;20.80;99.80;;;;;;5054754;28;20864;-81
2023/09/30 09:21:59;;;;;;;7.33;5.03;;;21.10;99.70;;;;;;5059806;28;20272;-81
2023/09/30 09:24:27;;;;;;;5.05;4.55;;;21.00;99.70;;;;;;5056631;28;20447;-81
2023/09/30 09:27:04;;;;;;;4.82;3.95;;;21.10;99.00;;;;;;5070980;28;20187;-81
2023/09/30 09:29:30;;;;;;;5.65;4.70;;;21.30;98.60;;;;;;5056035;28;20654;-81
2023/09/30 09:32:13;;;;;;;3.93;3.53;;;21.70;98.40;;;;;;5056046;28;20468;-80
2023/09/30 09:34:40;;;;;;;5.53;4.40;;;21.70;97.80;;;;;;5056882;28;20181;-80
2023/09/30 09:37:19;;;;;;;7.55;4.82;;;22.00;97.50;;;;;;5053782;28;20819;-81
2023/09/30 09:39:56;;;;;;;4.75;4.22;;;21.60;97.30;;;;;;5078294;28;20284;-80
2023/09/30 09:42:30;;;;;;;7.15;4.35;;;21.80;97.50;;;;;;5056694;28;20208;-81
2023/09/30 09:45:05;;;;;;;5.55;4.13;;;21.90;98.10;;;;;;5061771;28;20183;-79
2023/09/30 09:47:35;;;;;;;4.87;4.30;;;21.10;97.90;;;;;;5061271;28;20176;-82
2023/09/30 09:50:03;;;;;;;8.00;4.30;;;21.00;98.20;;;;;;5057795;28;20432;-82
2023/09/30 09:52:31;;;;;;;5.80;4.10;;;20.90;98.60;;;;;;5058346;28;21123;-81
2023/09/30 09:54:58;;;;;;;6.35;4.60;;;21.10;99.00;;;;;;5060551;28;20223;-82
2023/09/30 09:57:25;;;;;;;5.55;4.30;;;20.60;99.00;;;;;;5056246;28;20189;-82
2023/09/30 09:59:53;;;;;;;8.63;5.20;;;20.90;98.90;;;;;;5058445;28;20181;-81
2023/09/30 10:02:19;;;;;;;4.60;4.17;;;21.70;98.30;;;;;;5057926;28;20959;-80
2023/09/30 10:04:45;;;;;;;8.27;3.70;;;22.00;97.50;;;;;;5062096;28;20443;-82
2023/09/30 10:07:29;;;;;;;6.73;4.20;;;21.90;96.80;;;;;;5061898;28;20185;-82
2023/09/30 10:09:58;;;;;;;6.47;4.17;;;22.10;96.40;;;;;;5061126;28;20443;-82
2023/09/30 10:12:25;;;;;;;4.87;4.13;;;22.20;95.40;;;;;;5077911;28;20959;-81
2023/09/30 10:14:52;;;;;;;5.03;3.80;;;22.30;95.40;;;;;;5054976;28;20453;-82
2023/09/30 10:17:18;;;;;;;5.00;4.23;;;22.40;95.30;;;;;;5061480;28;20835;-81
2023/09/30 10:20:06;;;;;;;7.00;4.50;;;22.30;95.20;;;;;;5059040;28;20552;-81
2023/09/30 10:22:32;;;;;;;6.97;4.10;;;21.90;95.00;;;;;;5062698;28;20232;-81
2023/09/30 10:25:05;;;;;;;5.30;4.60;;;22.60;95.40;;;;;;5052400;28;20451;-81
2023/09/30 10:27:32;;;;;;;6.70;4.07;;;22.70;94.70;;;;;;5056582;28;20275;-80
2023/09/30 10:29:59;;;;;;;7.13;4.60;;;22.50;94.30;;;;;;5051165;28;20458;-79
2023/09/30 10:32:51;;;;;;;5.60;3.83;;;22.30;94.70;;;;;;5057892;28;20562;-79
2023/09/30 10:35:26;;;;;;;8.20;4.50;;;21.90;94.70;;;;;;5053014;28;20448;-80
2023/09/30 10:38:11;;;;;;;6.30;4.30;;;22.00;94.70;;;;;;5054977;28;20442;-80
2023/09/30 10:40:37;;;;;;;5.75;4.30;;;21.80;94.90;;;;;;5056735;28;21358;-80
2023/09/30 10:43:02;;;;;;;5.63;3.67;;;22.30;94.40;;;;;;5054161;28;20313;-80
2023/09/30 10:45:43;;;;;;;5.40;4.00;;;22.10;94.60;;;;;;5051785;28;20303;-79
2023/09/30 10:48:30;;;;;;;6.33;4.63;;;22.30;94.10;;;;;;5055032;28;20201;-79
2023/09/30 10:51:01;;;;;;;5.67;4.30;;;22.50;93.30;;;;;;5054537;28;20443;-78
2023/09/30 10:53:28;;;;;;;5.77;4.60;;;22.90;93.20;;;;;;5050217;28;20510;-79
2023/09/30 10:55:57;;;;;;;8.80;6.23;;;23.40;92.10;;;;;;5055754;28;20439;-80
2023/09/30 10:58:39;;;;;;;5.73;4.40;;;23.80;91.30;;;;;;5052662;28;20444;-80
2023/09/30 11:01:05;;;;;;;6.10;4.53;;;24.20;90.70;;;;;;5084726;28;20622;-80
2023/09/30 11:03:30;;;;;;;6.03;4.93;;;23.90;90.90;;;;;;5052453;28;20567;-80
2023/09/30 11:05:56;;;;;;;5.93;5.00;;;23.40;91.70;;;;;;5080699;28;20256;-80
2023/09/30 11:08:23;;;;;;;7.30;5.07;;;22.80;91.80;;;;;;5051835;28;20215;-79
2023/09/30 11:10:54;;;;;;;23.40;21.40;;;23.00;92.10;;;;;;5052669;28;20529;-79
2023/09/30 11:13:20;;;;;;;6.73;6.03;;;22.70;92.00;;;;;;5081738;28;20468;-79
2023/09/30 11:15:46;;;;;;;9.50;4.70;;;22.50;92.30;;;;;;5055999;28;20444;-79
2023/09/30 11:18:16;;;;;;;5.47;4.70;;;22.90;92.40;;;;;;5052321;28;20450;-80
2023/09/30 11:20:44;;;;;;;5.73;4.77;;;22.80;91.60;;;;;;5054093;28;20173;-80
2023/09/30 11:23:11;;;;;;;7.10;5.20;;;22.80;91.50;;;;;;5052953;28;20471;-84
2023/09/30 11:25:37;;;;;;;6.20;4.63;;;23.20;91.90;;;;;;5057918;28;20431;-84
2023/09/30 11:28:19;;;;;;;7.20;4.30;;;23.60;91.90;;;;;;5053678;28;20512;-81
2023/09/30 11:31:06;;;;;;;7.20;4.70;;;23.10;91.40;;;;;;5057555;28;20443;-84
2023/09/30 11:33:31;;;;;;;7.03;5.87;;;23.00;90.60;;;;;;5068365;28;20995;-85
2023/09/30 11:36:02;;;;;;;6.30;4.80;;;22.60;90.70;;;;;;5058827;28;20443;-83
2023/09/30 11:38:28;;;;;;;7.10;4.80;;;22.70;91.00;;;;;;5055616;28;20249;-80
2023/09/30 11:41:03;;;;;;;11.73;6.97;;;22.60;91.00;;;;;;5059805;28;20515;-86
2023/09/30 11:43:33;;;;;;;8.90;5.80;;;22.50;91.50;;;;;;5061019;28;20482;-85
2023/09/30 11:46:13;;;;;;;6.97;4.90;;;22.40;91.10;;;;;;5060844;28;20438;-84
2023/09/30 11:48:56;;;;;;;7.27;5.10;;;22.70;91.60;;;;;;5058101;28;20443;-84
2023/09/30 11:51:26;;;;;;;7.70;5.07;;;22.40;91.50;;;;;;5056872;28;20543;-84
2023/09/30 11:53:53;;;;;;;6.97;4.53;;;22.70;90.50;;;;;;5056872;28;20838;-83
2023/09/30 11:56:19;;;;;;;5.97;4.70;;;22.50;88.30;;;;;;5056427;28;20941;-84
2023/09/30 11:58:46;;;;;;;6.43;5.07;;;23.10;88.80;;;;;;5054240;28;20495;-84
2023/09/30 12:01:13;;;;;;;7.13;5.67;;;22.60;88.00;;;;;;5086395;28;20185;-83
2023/09/30 12:03:39;;;;;;;8.63;5.60;;;23.20;87.20;;;;;;5053742;28;20979;-84
2023/09/30 12:06:06;;;;;;;6.07;4.73;;;23.10;87.50;;;;;;5049851;28;20450;-83
2023/09/30 12:08:32;;;;;;;6.10;4.80;;;23.10;87.00;;;;;;5057795;28;20433;-83
2023/09/30 12:10:59;;;;;;;5.83;4.40;;;23.80;88.80;;;;;;5061709;28;20455;-83
2023/09/30 12:13:25;;;;;;;8.00;4.87;;;23.30;85.10;;;;;;5049183;28;20481;-82
2023/09/30 12:15:52;;;;;;;7.00;5.20;;;23.10;84.70;;;;;;5057576;28;20436;-83
2023/09/30 12:18:23;;;;;;;6.30;4.57;;;23.70;84.90;;;;;;5055962;28;20234;-83
2023/09/30 12:20:49;;;;;;;5.87;4.40;;;23.30;86.40;;;;;;5051026;28;20503;-83
2023/09/30 12:23:14;;;;;;;6.73;4.43;;;23.90;85.80;;;;;;5053050;28;20542;-81
2023/09/30 12:25:40;;;;;;;9.00;4.40;;;24.10;84.00;;;;;;5056777;28;20440;-83
2023/09/30 12:28:05;;;;;;;6.07;4.60;;;23.60;83.40;;;;;;5057934;28;20185;-84
2023/09/30 12:30:31;;;;;;;6.57;4.40;;;23.80;83.40;;;;;;5056535;28;20193;-84
2023/09/30 12:32:57;;;;;;;7.97;4.73;;;23.90;82.80;;;;;;5053532;28;20213;-84
2023/09/30 12:35:23;;;;;;;9.30;5.20;;;24.00;82.30;;;;;;5052882;28;20527;-83
2023/09/30 12:37:49;;;;;;;5.87;4.87;;;23.50;83.10;;;;;;5056106;28;20976;-84
2023/09/30 12:40:16;;;;;;;6.97;5.33;;;23.50;81.70;;;;;;5053953;28;20185;-83
2023/09/30 12:42:43;;;;;;;7.03;4.60;;;23.40;81.10;;;;;;5053583;28;20301;-84
2023/09/30 12:45:09;;;;;;;5.37;4.47;;;23.80;81.30;;;;;;5053120;28;20451;-83
2023/09/30 12:47:34;;;;;;;7.17;4.80;;;23.50;79.70;;;;;;5084338;28;20450;-82
2023/09/30 12:50:00;;;;;;;6.67;5.23;;;23.40;79.90;;;;;;5053628;28;20538;-83
2023/09/30 12:52:25;;;;;;;7.83;5.43;;;23.80;80.30;;;;;;5052208;28;20227;-84
2023/09/30 12:54:51;;;;;;;6.40;4.20;;;23.50;82.90;;;;;;5054040;28;20181;-85
2023/09/30 12:57:18;;;;;;;6.03;4.60;;;23.50;86.10;;;;;;5071161;28;20543;-82
2023/09/30 12:59:46;;;;;;;5.40;4.57;;;22.90;86.40;;;;;;5092898;28;20645;-82
2023/09/30 13:02:12;;;;;;;6.57;4.40;;;22.80;87.60;;;;;;5056546;28;20460;-83
2023/09/30 13:04:42;;;;;;;6.63;4.50;;;23.00;87.30;;;;;;5055172;28;20448;-81
2023/09/30 13:07:11;;;;;;;6.93;4.70;;;23.20;86.50;;;;;;5057066;28;20443;-82
2023/09/30 13:09:38;;;;;;;8.00;4.20;;;23.10;86.70;;;;;;5063777;28;20448;-82